< < Back
Terminal Aerodrome Forecast


Current Version              Previous Versions:   1  2  3  4  5  6  7  8  9  

Terminal Aerodrome Forecast

400
FTUS44 KOHX 042300
TAFBNA
TAF
KBNA 042320Z 0500/0524 19004KT P6SM SCT250
     FM051500 19008G18KT P6SM SCT250=

Latest METAR

151
SAUS70 KWBC 050056
MTRBNA
METAR KBNA 050053Z 18003KT 10SM FEW250 23/12 A3020 RMK AO2 SLP221
T02330122 $


USA.gov is the U.S. government's official web portal to all federal, state and local government web resources and services.